This is the latest recevied weather packets stored in our database for station/object DG2GGP-11. If no packets are shown the sender has not sent any weather packets the latest 10 day(s).
| Time | Temp. | Humidity | Pressure | Rain* | Wind** | Luminosity | Snow |
|---|---|---|---|---|---|---|---|
| 1777366157 | 17.22° C | 42% | 1017.2 hPa | 0 mm | - | 38 W/m² | - |
| 1777365557 | 16.67° C | 44% | 1017.1 hPa | 0 mm | - | 50 W/m² | - |
| 1777364957 | 16.11° C | 46% | 1017.1 hPa | 0 mm | - | 40 W/m² | - |
| 1777364357 | 16.11° C | 46% | 1017.1 hPa | 0 mm | - | 36 W/m² | - |
| 1777363757 | 15.56° C | 49% | 1017.1 hPa | 0 mm | - | 34 W/m² | - |
| 1777363157 | 15° C | 48% | 1017.1 hPa | 0 mm | - | 34 W/m² | - |
| 1777362557 | 14.44° C | 50% | 1017 hPa | 0 mm | - | 32 W/m² | - |
| 1777361762 | 13.89° C | 53% | 1017 hPa | 0 mm | - | 35 W/m² | - |
| 1777361162 | 13.89° C | 52% | 1017.1 hPa | 0 mm | - | 33 W/m² | - |
| 1777360562 | 13.33° C | 53% | 1017.1 hPa | 0 mm | - | 37 W/m² | - |
| 1777359962 | 13.33° C | 56% | 1017.1 hPa | 0 mm | - | 36 W/m² | - |
| 1777359362 | 13.33° C | 56% | 1017.1 hPa | 0 mm | - | 35 W/m² | - |
| 1777358762 | 12.78° C | 58% | 1017.2 hPa | 0 mm | - | 33 W/m² | - |
| 1777358162 | 11.11° C | 61% | 1017.2 hPa | 0 mm | - | 31 W/m² | - |
| 1777357562 | 9.44° C | 66% | 1017.2 hPa | 0 mm | - | 28 W/m² | - |
| 1777356962 | 8.89° C | 68% | 1017.2 hPa | 0 mm | - | 28 W/m² | - |
| 1777356362 | 8.33° C | 72% | 1017.2 hPa | 0 mm | - | 20 W/m² | - |
| 1777355762 | 6.67° C | 78% | 1017.2 hPa | 0 mm | - | 19 W/m² | - |
| 1777355162 | 5° C | 80% | 1017.2 hPa | 0 mm | - | 17 W/m² | - |
| 1777354562 | 4.44° C | 81% | 1017.2 hPa | 0 mm | - | 5 W/m² | - |
| 1777353962 | 3.89° C | 81% | 1017 hPa | 0 mm | - | 4 W/m² | - |
| 1777353362 | 3.89° C | 81% | 1016.9 hPa | 0 mm | - | 3 W/m² | - |
| 1777352762 | 4.44° C | 80% | 1016.9 hPa | 0 mm | - | 2 W/m² | - |
| 1777352162 | 4.44° C | 80% | 1016.7 hPa | 0 mm | - | 1 W/m² | - |
| 1777351562 | 4.44° C | 80% | 1016.6 hPa | 0 mm | - | 1 W/m² | - |
* Rain latest hour (hover to see other rain measurements)
** Current wind speed in m/s (hover to see current wind gust speed)